Time;durP1;ratioP1;P1;durP2;ratioP2;P2;SDS_P1;SDS_P2;PMS_P1;PMS_P2;Temp;Humidity;BMP_temperature;BMP_pressure;BME280_temperature;BME280_humidity;BME280_pressure;Samples;Min_cycle;Max_cycle;Signal;HPM_P1;HPM_P2
2022/07/11 00:00:14;;;;;;;7.72;4.00;;;11.40;99.90;;;;;;5006090;28;20105;-66
2022/07/11 00:02:42;;;;;;;7.85;4.10;;;11.40;99.90;;;;;;5006068;28;20455;-67
2022/07/11 00:05:10;;;;;;;7.55;4.90;;;11.40;99.90;;;;;;5006433;28;20028;-67
2022/07/11 00:07:38;;;;;;;8.45;4.65;;;11.40;99.90;;;;;;5005645;28;20061;-67
2022/07/11 00:10:06;;;;;;;10.43;4.68;;;11.50;99.90;;;;;;5005838;28;20466;-66
2022/07/11 00:12:34;;;;;;;8.88;4.63;;;11.50;99.90;;;;;;5004901;28;20101;-65
2022/07/11 00:15:01;;;;;;;6.35;4.68;;;11.50;99.90;;;;;;5005840;28;20101;-66
2022/07/11 00:17:29;;;;;;;9.38;4.10;;;11.50;99.90;;;;;;5005511;28;20101;-66
2022/07/11 00:19:58;;;;;;;6.85;3.78;;;11.50;99.90;;;;;;5005930;28;20109;-67
2022/07/11 00:22:25;;;;;;;10.35;4.13;;;11.50;99.90;;;;;;5005221;28;20492;-67
2022/07/11 00:24:53;;;;;;;8.02;4.03;;;11.50;99.90;;;;;;5005571;28;20371;-66
2022/07/11 00:27:20;;;;;;;9.65;4.47;;;11.50;99.90;;;;;;5005300;28;20025;-68
2022/07/11 00:29:47;;;;;;;7.90;4.80;;;11.50;99.90;;;;;;5005611;28;20775;-68
2022/07/11 00:32:14;;;;;;;6.70;3.50;;;11.50;99.90;;;;;;5004336;28;20028;-72
2022/07/11 00:34:42;;;;;;;7.22;3.60;;;11.70;99.90;;;;;;5004040;28;20025;-66
2022/07/11 00:37:09;;;;;;;8.30;3.88;;;11.70;99.90;;;;;;5004134;28;20118;-67
2022/07/11 00:39:36;;;;;;;8.80;3.20;;;11.80;99.90;;;;;;5003607;28;20045;-67
2022/07/11 00:42:04;;;;;;;10.38;3.13;;;11.80;99.90;;;;;;5004079;28;20033;-67
2022/07/11 00:44:31;;;;;;;7.50;1.80;;;11.90;99.90;;;;;;5003705;28;20449;-68
2022/07/11 00:46:58;;;;;;;9.73;2.22;;;12.00;99.90;;;;;;5004265;28;20288;-66
2022/07/11 00:49:26;;;;;;;5.28;2.00;;;11.90;99.90;;;;;;5003660;28;20419;-65
2022/07/11 00:51:53;;;;;;;6.78;2.03;;;12.10;99.90;;;;;;5003621;28;20076;-70
2022/07/11 00:54:22;;;;;;;4.63;1.65;;;12.10;99.90;;;;;;5003894;28;20022;-65
2022/07/11 00:56:51;;;;;;;4.60;1.98;;;12.30;99.90;;;;;;5001997;28;20049;-67
2022/07/11 00:59:19;;;;;;;6.55;2.08;;;12.30;99.90;;;;;;5001974;28;20045;-69
2022/07/11 01:01:47;;;;;;;6.60;1.95;;;12.40;99.90;;;;;;5003206;28;20482;-65
2022/07/11 01:04:14;;;;;;;3.75;1.60;;;12.60;99.90;;;;;;5003862;28;20033;-69
2022/07/11 01:06:41;;;;;;;6.90;2.25;;;12.70;99.90;;;;;;5003086;28;20387;-67
2022/07/11 01:09:09;;;;;;;8.57;2.30;;;12.90;99.90;;;;;;5003826;28;20032;-68
2022/07/11 01:11:36;;;;;;;7.50;1.58;;;13.00;99.90;;;;;;5003151;28;20398;-69
2022/07/11 01:14:03;;;;;;;6.40;1.90;;;13.30;99.90;;;;;;5003864;28;20363;-68
2022/07/11 01:16:31;;;;;;;5.50;1.75;;;13.40;99.90;;;;;;5002933;28;20034;-68
2022/07/11 01:18:58;;;;;;;8.75;2.08;;;13.70;99.90;;;;;;5000527;28;20101;-67
2022/07/11 01:21:32;;;;;;;5.05;1.52;;;13.90;99.90;;;;;;5003130;28;20034;-70
2022/07/11 01:24:01;;;;;;;8.40;1.75;;;13.90;99.90;;;;;;5001125;28;20315;-68
2022/07/11 01:26:29;;;;;;;8.98;1.92;;;14.00;99.90;;;;;;5002318;28;20097;-68
2022/07/11 01:29:04;;;;;;;9.23;2.38;;;14.20;99.90;;;;;;5004019;28;20029;-66
2022/07/11 01:31:32;;;;;;;7.50;2.00;;;14.40;99.90;;;;;;5003902;28;20026;-69
2022/07/11 01:33:59;;;;;;;6.18;1.70;;;14.50;99.90;;;;;;5004345;28;20026;-70
2022/07/11 01:36:26;;;;;;;4.82;1.33;;;14.50;99.90;;;;;;5004493;28;20511;-69
2022/07/11 01:38:54;;;;;;;5.97;2.08;;;14.80;99.90;;;;;;5004345;28;20029;-67
2022/07/11 01:41:21;;;;;;;6.95;1.65;;;14.90;99.90;;;;;;5004202;28;20022;-68
2022/07/11 01:43:49;;;;;;;3.25;1.58;;;15.10;99.90;;;;;;5003651;28;20125;-68
2022/07/11 01:46:17;;;;;;;2.83;1.20;;;15.20;99.90;;;;;;5004116;28;20493;-67
2022/07/11 01:48:45;;;;;;;4.55;1.48;;;15.20;99.90;;;;;;5004147;28;20108;-67
2022/07/11 01:51:12;;;;;;;9.73;1.77;;;15.20;99.90;;;;;;5004187;28;20041;-68
2022/07/11 01:53:40;;;;;;;4.18;2.08;;;15.20;99.90;;;;;;5003511;28;20022;-69
2022/07/11 01:56:07;;;;;;;9.55;2.42;;;15.00;99.90;;;;;;5003855;28;20459;-67
2022/07/11 01:58:34;;;;;;;8.25;1.90;;;14.80;99.90;;;;;;5003460;28;20450;-69
2022/07/11 02:01:02;;;;;;;13.18;3.83;;;14.60;99.90;;;;;;5003514;28;21830;-69
2022/07/11 02:03:29;;;;;;;12.50;3.33;;;14.50;99.90;;;;;;5003833;28;20390;-69
2022/07/11 02:05:59;;;;;;;12.18;3.50;;;14.40;99.90;;;;;;5003776;28;20046;-67
2022/07/11 02:08:27;;;;;;;6.32;1.83;;;14.30;99.90;;;;;;5004242;28;20022;-69
2022/07/11 02:10:55;;;;;;;6.57;2.45;;;14.20;99.90;;;;;;5003299;28;20022;-67
2022/07/11 02:13:23;;;;;;;8.02;2.90;;;14.10;99.90;;;;;;5003799;28;20068;-68
2022/07/11 02:15:52;;;;;;;4.43;1.83;;;14.10;99.90;;;;;;5003462;28;20506;-68
2022/07/11 02:18:20;;;;;;;7.57;2.05;;;14.00;99.90;;;;;;5003627;28;20221;-66
2022/07/11 02:20:51;;;;;;;6.57;1.70;;;13.90;99.90;;;;;;5003130;28;20022;-71
2022/07/11 02:23:19;;;;;;;5.38;1.60;;;13.90;99.90;;;;;;5003800;28;20033;-69
2022/07/11 02:25:47;;;;;;;6.32;1.38;;;13.90;99.90;;;;;;5003623;28;20018;-69
2022/07/11 02:28:15;;;;;;;5.10;1.30;;;14.00;99.90;;;;;;5003854;28;20030;-67
2022/07/11 02:30:45;;;;;;;7.68;2.42;;;14.20;99.90;;;;;;5002968;28;20022;-68
2022/07/11 02:33:15;;;;;;;6.03;2.08;;;14.50;99.90;;;;;;5003802;28;20033;-68
2022/07/11 02:35:47;;;;;;;12.57;2.85;;;14.70;99.90;;;;;;5003205;28;20029;-68
2022/07/11 02:38:15;;;;;;;5.22;2.60;;;14.80;99.90;;;;;;5003438;28;20090;-68
2022/07/11 02:40:42;;;;;;;6.70;2.03;;;15.20;99.90;;;;;;5003087;28;20026;-71
2022/07/11 02:43:10;;;;;;;6.90;1.60;;;15.50;99.90;;;;;;5003332;28;20175;-67
2022/07/11 02:45:37;;;;;;;12.38;2.50;;;15.90;99.90;;;;;;5003327;28;20048;-67
2022/07/11 02:48:05;;;;;;;8.02;2.30;;;16.10;99.90;;;;;;5002984;28;20026;-67
2022/07/11 02:50:33;;;;;;;10.32;2.22;;;16.40;99.90;;;;;;5003256;28;20022;-67
2022/07/11 02:53:00;;;;;;;8.40;2.08;;;16.80;99.90;;;;;;5002695;28;20696;-67
2022/07/11 02:55:27;;;;;;;11.93;2.47;;;17.30;99.90;;;;;;5002879;28;20030;-67
2022/07/11 02:57:55;;;;;;;8.43;2.30;;;17.50;99.90;;;;;;5003037;28;20057;-67
2022/07/11 03:00:22;;;;;;;12.68;2.33;;;17.30;99.90;;;;;;5003656;28;20475;-68
2022/07/11 03:02:49;;;;;;;17.30;3.80;;;17.00;99.90;;;;;;5002561;28;20124;-68
2022/07/11 03:05:17;;;;;;;12.52;2.63;;;16.70;99.90;;;;;;5002802;28;20014;-68
2022/07/11 03:07:44;;;;;;;7.32;2.65;;;16.50;99.90;;;;;;5003006;28;20072;-68
2022/07/11 03:10:12;;;;;;;12.40;3.53;;;16.30;99.90;;;;;;5003216;28;20562;-67
2022/07/11 03:12:39;;;;;;;11.45;3.10;;;16.30;99.90;;;;;;5003141;28;20148;-68
2022/07/11 03:15:07;;;;;;;8.48;2.00;;;16.50;99.90;;;;;;5002539;28;20029;-68
2022/07/11 03:17:36;;;;;;;11.18;2.17;;;16.70;99.90;;;;;;5003285;28;20022;-70
2022/07/11 03:20:05;;;;;;;7.05;2.22;;;16.70;99.90;;;;;;5002270;28;20026;-70
2022/07/11 03:22:32;;;;;;;12.02;4.05;;;17.20;99.90;;;;;;5002671;28;20054;-67
2022/07/11 03:25:06;;;;;;;11.38;3.55;;;17.90;99.90;;;;;;5002828;28;20020;-66
2022/07/11 03:27:36;;;;;;;10.80;2.00;;;18.50;99.90;;;;;;5002778;28;20032;-67
2022/07/11 03:30:04;;;;;;;9.73;2.55;;;18.30;99.90;;;;;;5004731;28;20021;-66
2022/07/11 03:32:32;;;;;;;7.43;2.20;;;18.00;99.90;;;;;;5006693;28;20022;-66
2022/07/11 03:37:44;;;;;;;13.50;2.65;;;17.30;99.90;;;;;;5007055;28;20037;-66
2022/07/11 03:40:12;;;;;;;8.57;2.35;;;16.90;99.90;;;;;;5006389;28;20041;-66
2022/07/11 03:42:39;;;;;;;7.28;2.20;;;16.60;99.90;;;;;;5006503;28;20041;-67
2022/07/11 03:45:08;;;;;;;6.18;1.83;;;16.40;99.90;;;;;;5005957;28;20496;-65
2022/07/11 03:47:36;;;;;;;10.23;2.10;;;16.10;99.90;;;;;;5006329;28;20087;-66
2022/07/11 03:50:04;;;;;;;12.50;2.80;;;15.90;99.90;;;;;;5005940;28;20022;-66
2022/07/11 03:52:32;;;;;;;11.73;2.70;;;15.80;99.90;;;;;;5006770;28;20048;-67
2022/07/11 03:54:59;;;;;;;10.52;3.17;;;15.50;99.90;;;;;;5006278;28;20033;-69
2022/07/11 03:57:26;;;;;;;7.47;2.10;;;15.40;99.90;;;;;;5006041;28;20096;-68
2022/07/11 03:59:53;;;;;;;11.73;3.08;;;15.30;99.90;;;;;;5006014;28;20112;-68
2022/07/11 04:02:21;;;;;;;12.30;3.72;;;15.30;99.90;;;;;;5006337;28;20038;-67
2022/07/11 04:04:48;;;;;;;9.90;2.75;;;15.20;99.90;;;;;;5006687;28;20028;-68
2022/07/11 04:07:20;;;;;;;10.93;2.08;;;15.20;99.90;;;;;;5006711;28;20379;-69
2022/07/11 04:09:47;;;;;;;5.97;2.25;;;15.10;99.90;;;;;;5007342;28;20022;-70
2022/07/11 04:12:15;;;;;;;12.45;3.70;;;15.00;99.90;;;;;;5005989;28;20121;-69
2022/07/11 04:14:42;;;;;;;6.53;2.00;;;15.00;99.90;;;;;;5005619;28;20045;-68
2022/07/11 04:17:09;;;;;;;6.80;2.13;;;14.90;99.90;;;;;;5005808;28;20366;-68
2022/07/11 04:19:38;;;;;;;3.08;1.33;;;14.90;99.90;;;;;;5006210;28;20145;-68
2022/07/11 04:22:06;;;;;;;4.70;1.48;;;14.90;99.90;;;;;;5005574;28;20141;-67
2022/07/11 04:24:33;;;;;;;3.70;1.10;;;14.90;99.90;;;;;;5005822;28;20022;-68
2022/07/11 04:27:00;;;;;;;7.13;1.77;;;14.90;99.90;;;;;;5005486;28;20026;-67
2022/07/11 04:29:28;;;;;;;10.18;1.20;;;14.90;99.90;;;;;;5005686;28;20882;-68
2022/07/11 04:31:55;;;;;;;4.47;1.30;;;14.90;99.90;;;;;;5005331;28;20105;-68
2022/07/11 04:34:22;;;;;;;7.15;1.38;;;14.80;99.90;;;;;;5005517;28;20097;-67
2022/07/11 04:36:50;;;;;;;6.95;1.60;;;14.80;99.90;;;;;;5004531;28;20317;-68
2022/07/11 04:39:17;;;;;;;9.57;4.63;;;14.80;99.90;;;;;;5005162;28;20022;-67
2022/07/11 04:41:44;;;;;;;5.75;2.80;;;14.70;99.90;;;;;;5005279;28;20053;-68
2022/07/11 04:44:12;;;;;;;7.55;2.40;;;14.60;99.90;;;;;;5005296;28;20022;-68
2022/07/11 04:46:39;;;;;;;9.25;3.30;;;14.50;99.90;;;;;;5005561;28;20018;-67
2022/07/11 04:49:06;;;;;;;7.40;2.53;;;14.50;99.90;;;;;;5004950;28;20026;-69
2022/07/11 04:51:36;;;;;;;5.20;2.55;;;14.40;99.90;;;;;;5004827;28;20022;-69
2022/07/11 04:54:03;;;;;;;6.63;2.15;;;14.30;99.90;;;;;;5004671;28;20032;-67
2022/07/11 04:56:30;;;;;;;4.15;1.45;;;14.30;99.90;;;;;;5004948;28;20057;-68
2022/07/11 04:58:58;;;;;;;8.45;1.67;;;14.30;99.90;;;;;;5005078;28;20049;-67
2022/07/11 05:01:25;;;;;;;4.07;1.52;;;14.30;99.90;;;;;;5004668;28;20037;-67
2022/07/11 05:03:53;;;;;;;4.88;1.45;;;14.30;99.90;;;;;;5005557;28;20030;-68
2022/07/11 05:06:20;;;;;;;2.70;1.20;;;14.20;99.90;;;;;;5004773;28;20045;-67
2022/07/11 05:08:48;;;;;;;4.97;1.77;;;14.20;99.90;;;;;;5005365;28;20105;-68
2022/07/11 05:11:15;;;;;;;3.30;1.60;;;14.30;99.90;;;;;;5004392;28;20029;-68
2022/07/11 05:13:42;;;;;;;7.00;2.38;;;14.30;99.90;;;;;;5004823;28;20022;-68
2022/07/11 05:16:10;;;;;;;3.10;1.23;;;14.40;99.90;;;;;;5004910;28;20026;-68
2022/07/11 05:18:37;;;;;;;2.42;0.88;;;14.30;99.90;;;;;;5004636;28;20053;-70
2022/07/11 05:21:05;;;;;;;5.30;1.25;;;14.30;99.90;;;;;;5004483;28;20045;-70
2022/07/11 05:23:32;;;;;;;5.60;1.20;;;14.40;99.90;;;;;;5005079;28;20332;-67
2022/07/11 05:26:00;;;;;;;4.75;1.95;;;14.40;99.90;;;;;;5004958;28;20033;-68
2022/07/11 05:28:27;;;;;;;4.10;1.10;;;14.40;99.90;;;;;;5004187;28;20018;-69
2022/07/11 05:30:54;;;;;;;4.05;1.55;;;14.50;99.90;;;;;;5004915;28;20099;-68
2022/07/11 05:33:21;;;;;;;6.47;1.88;;;14.40;99.90;;;;;;5002900;28;20037;-67
2022/07/11 05:35:49;;;;;;;8.55;4.60;;;14.60;99.90;;;;;;5004466;28;20352;-66
2022/07/11 05:38:16;;;;;;;7.40;4.30;;;14.50;99.90;;;;;;5002571;28;20034;-66
2022/07/11 05:40:43;;;;;;;9.32;3.47;;;14.50;99.90;;;;;;5004191;28;20026;-68
2022/07/11 05:43:11;;;;;;;4.93;2.05;;;14.60;99.90;;;;;;5003665;28;20036;-67
2022/07/11 05:45:38;;;;;;;6.82;1.45;;;14.50;99.90;;;;;;5004519;28;20029;-70
2022/07/11 05:48:05;;;;;;;8.10;2.08;;;14.50;99.90;;;;;;5004390;28;20025;-71
2022/07/11 05:50:33;;;;;;;5.93;1.73;;;14.40;99.90;;;;;;5004268;28;20124;-71
2022/07/11 05:53:00;;;;;;;5.97;2.88;;;14.40;99.90;;;;;;5003731;28;20032;-67
2022/07/11 05:55:27;;;;;;;7.88;2.22;;;14.30;99.90;;;;;;5003719;28;20486;-69
2022/07/11 05:57:55;;;;;;;10.55;2.33;;;14.20;99.90;;;;;;5004386;28;20022;-67
2022/07/11 06:00:25;;;;;;;14.15;5.25;;;14.20;99.90;;;;;;5004112;28;20033;-69
2022/07/11 06:02:52;;;;;;;11.50;3.80;;;14.20;99.90;;;;;;5004288;28;20061;-70
2022/07/11 06:05:20;;;;;;;8.00;3.53;;;14.20;99.90;;;;;;5002486;28;20076;-67
2022/07/11 06:10:33;;;;;;;10.18;2.95;;;14.10;99.90;;;;;;5003453;28;20211;-68
2022/07/11 06:13:00;;;;;;;9.48;2.78;;;14.10;99.90;;;;;;5003967;28;20026;-67
2022/07/11 06:15:28;;;;;;;9.02;2.88;;;14.10;99.90;;;;;;5003697;28;20152;-68
2022/07/11 06:17:55;;;;;;;11.45;2.78;;;14.00;99.90;;;;;;5002693;28;20554;-68
2022/07/11 06:20:22;;;;;;;10.13;2.72;;;14.00;99.90;;;;;;5003692;28;20366;-65
2022/07/11 06:22:50;;;;;;;8.43;2.30;;;13.90;99.90;;;;;;5003340;28;20694;-65
2022/07/11 06:25:17;;;;;;;7.97;2.90;;;13.90;99.90;;;;;;5003291;28;20054;-66
2022/07/11 06:27:44;;;;;;;6.03;2.33;;;13.80;99.90;;;;;;5003824;28;20168;-68
2022/07/11 06:30:12;;;;;;;10.68;3.25;;;13.80;99.90;;;;;;5003578;28;20017;-67
2022/07/11 06:32:40;;;;;;;10.90;3.13;;;13.80;99.90;;;;;;5003586;28;20041;-67
2022/07/11 06:35:08;;;;;;;5.45;2.72;;;13.70;99.90;;;;;;5003678;28;20423;-66
2022/07/11 06:37:35;;;;;;;8.05;3.42;;;13.60;99.90;;;;;;5003044;28;20033;-66
2022/07/11 06:40:09;;;;;;;10.85;4.28;;;13.60;99.90;;;;;;5003393;28;20037;-66
2022/07/11 06:42:37;;;;;;;8.65;3.20;;;13.50;99.90;;;;;;5001121;28;20056;-66
2022/07/11 06:45:06;;;;;;;11.25;2.80;;;13.50;99.90;;;;;;5003289;28;20102;-67
2022/07/11 06:47:33;;;;;;;7.78;2.97;;;13.50;99.90;;;;;;5003049;28;20086;-66
2022/07/11 06:50:01;;;;;;;7.63;2.97;;;13.40;99.90;;;;;;5003332;28;20018;-67
2022/07/11 06:52:28;;;;;;;11.63;4.45;;;13.40;99.90;;;;;;5003317;28;20026;-66
2022/07/11 06:54:57;;;;;;;11.05;3.70;;;13.30;99.90;;;;;;5003160;28;20034;-67
2022/07/11 06:57:24;;;;;;;9.02;3.42;;;13.20;99.90;;;;;;5002427;28;20090;-67
2022/07/11 06:59:51;;;;;;;9.63;3.08;;;13.20;99.90;;;;;;5003551;28;20050;-67
2022/07/11 07:02:19;;;;;;;10.65;4.45;;;13.10;99.90;;;;;;5003189;28;20041;-67
2022/07/11 07:04:47;;;;;;;10.88;4.70;;;13.10;99.90;;;;;;5009482;28;20041;-67
2022/07/11 07:07:14;;;;;;;10.68;3.83;;;13.00;99.90;;;;;;5009950;28;20025;-67
2022/07/11 07:09:41;;;;;;;7.70;2.95;;;13.00;99.90;;;;;;5009565;28;20036;-67
2022/07/11 07:12:09;;;;;;;10.18;3.28;;;12.90;99.90;;;;;;5009044;28;20018;-67
2022/07/11 07:14:36;;;;;;;9.70;3.40;;;12.90;99.90;;;;;;5008836;28;20026;-66
2022/07/11 07:17:03;;;;;;;10.82;3.88;;;12.90;99.90;;;;;;5009222;28;20026;-67
2022/07/11 07:19:31;;;;;;;15.95;4.22;;;12.80;99.90;;;;;;5009339;28;20025;-66
2022/07/11 07:21:58;;;;;;;9.32;5.03;;;12.70;99.90;;;;;;5009446;28;20398;-67
2022/07/11 07:24:25;;;;;;;11.45;4.75;;;12.70;99.90;;;;;;5009318;28;20163;-66
2022/07/11 07:26:53;;;;;;;9.80;4.55;;;12.70;99.90;;;;;;5009908;28;20030;-68
2022/07/11 07:29:21;;;;;;;10.43;5.22;;;12.60;99.90;;;;;;5009701;28;20044;-67
2022/07/11 07:31:49;;;;;;;12.10;6.43;;;12.60;99.90;;;;;;5009656;28;20021;-67
2022/07/11 07:34:16;;;;;;;15.63;7.57;;;12.60;99.90;;;;;;5009029;28;20018;-68
2022/07/11 07:36:43;;;;;;;14.50;6.47;;;12.60;99.90;;;;;;5009131;28;20025;-72
2022/07/11 07:39:11;;;;;;;13.55;5.80;;;12.50;99.90;;;;;;5009999;28;20021;-67
2022/07/11 07:41:38;;;;;;;9.57;4.53;;;12.50;99.90;;;;;;5009855;28;20024;-69
2022/07/11 07:44:05;;;;;;;14.30;4.53;;;12.40;99.90;;;;;;5010835;28;20030;-66
2022/07/11 07:46:33;;;;;;;13.63;4.97;;;12.40;99.90;;;;;;5010401;28;20014;-67
2022/07/11 07:49:00;;;;;;;12.00;6.15;;;12.40;99.90;;;;;;5011080;28;20029;-67
2022/07/11 07:51:27;;;;;;;18.20;5.63;;;12.30;99.90;;;;;;5010928;28;20026;-69
2022/07/11 07:53:55;;;;;;;15.80;6.53;;;12.40;99.90;;;;;;5011430;28;20034;-67
2022/07/11 07:56:22;;;;;;;16.63;7.53;;;12.40;99.90;;;;;;5010827;28;20065;-68
2022/07/11 07:58:51;;;;;;;14.15;6.63;;;12.40;99.90;;;;;;5010203;28;20470;-67
2022/07/11 08:01:40;;;;;;;15.88;7.55;;;12.30;99.90;;;;;;5010518;28;20116;-67
2022/07/11 08:04:10;;;;;;;16.33;8.25;;;12.30;99.90;;;;;;5010635;28;20018;-67
2022/07/11 08:06:38;;;;;;;13.25;8.10;;;12.30;99.90;;;;;;5010523;28;20080;-67
2022/07/11 08:09:06;;;;;;;18.58;7.93;;;12.30;99.90;;;;;;5010628;28;20466;-67
2022/07/11 08:11:34;;;;;;;17.65;8.45;;;12.30;99.90;;;;;;5010643;28;20463;-70
2022/07/11 08:14:02;;;;;;;14.00;7.03;;;12.20;99.90;;;;;;5011044;28;20367;-70
2022/07/11 08:16:31;;;;;;;13.13;6.32;;;12.20;99.90;;;;;;5006983;28;20033;-71
2022/07/11 08:19:00;;;;;;;14.32;7.88;;;12.10;99.90;;;;;;5007971;28;20076;-67
2022/07/11 08:21:29;;;;;;;14.55;9.18;;;12.10;99.90;;;;;;5007189;28;20026;-70
2022/07/11 08:23:57;;;;;;;19.73;12.15;;;12.10;99.90;;;;;;5007281;28;20549;-70
2022/07/11 08:26:24;;;;;;;23.58;15.35;;;12.00;99.90;;;;;;5007017;28;20105;-69
2022/07/11 08:28:52;;;;;;;34.28;23.08;;;12.00;99.90;;;;;;5006998;28;20026;-69
2022/07/11 08:31:19;;;;;;;41.47;29.10;;;12.00;99.90;;;;;;5005795;28;20434;-68
2022/07/11 08:33:46;;;;;;;36.00;23.52;;;11.90;99.90;;;;;;5007196;28;20022;-69
2022/07/11 08:36:14;;;;;;;39.92;28.90;;;11.90;99.90;;;;;;5006979;28;20034;-69
2022/07/11 08:38:46;;;;;;;30.95;20.75;;;11.90;99.90;;;;;;5006867;28;20022;-68
2022/07/11 08:41:14;;;;;;;23.13;14.85;;;11.90;99.90;;;;;;5007334;28;20376;-67
2022/07/11 08:43:43;;;;;;;17.98;11.77;;;11.90;99.90;;;;;;5006527;28;20037;-70
2022/07/11 08:46:11;;;;;;;20.90;12.90;;;11.80;99.90;;;;;;5006686;28;20037;-67
2022/07/11 08:48:42;;;;;;;24.30;14.15;;;11.80;99.90;;;;;;5006468;28;20103;-68
2022/07/11 08:51:10;;;;;;;21.95;12.50;;;11.80;99.90;;;;;;5006794;28;20026;-66
2022/07/11 08:53:44;;;;;;;19.77;12.88;;;11.60;99.90;;;;;;5007202;28;20072;-68
2022/07/11 08:56:18;;;;;;;17.38;12.63;;;11.70;99.90;;;;;;5006746;28;20050;-67
2022/07/11 08:58:47;;;;;;;19.17;12.13;;;11.60;99.90;;;;;;5006707;28;20043;-67
2022/07/11 09:01:20;;;;;;;19.88;11.90;;;11.60;99.90;;;;;;5006580;28;20113;-67
2022/07/11 09:03:46;;;;;;;;;;;11.60;99.90;;;;;;5006913;28;20029;-68
2022/07/11 09:06:14;;;;;;;17.58;10.27;;;11.60;99.90;;;;;;5006272;28;19905;-66
2022/07/11 09:08:41;;;;;;;17.70;10.07;;;11.60;99.90;;;;;;5005339;28;20026;-67
2022/07/11 09:11:10;;;;;;;18.15;9.30;;;11.50;99.90;;;;;;5006722;28;20026;-67
2022/07/11 09:13:37;;;;;;;16.25;9.80;;;11.50;99.90;;;;;;5006507;28;20092;-67
2022/07/11 09:16:09;;;;;;;16.88;10.45;;;11.40;99.90;;;;;;5005165;28;20034;-68
2022/07/11 09:18:41;;;;;;;20.25;12.63;;;11.40;99.90;;;;;;5006732;28;20021;-68
2022/07/11 09:26:51;;;;;;;18.30;11.93;;;11.30;99.90;;;;;;5004895;28;20032;-67
2022/07/11 09:29:25;;;;;;;20.15;11.77;;;11.30;99.90;;;;;;5005805;28;20144;-69
2022/07/11 09:31:53;;;;;;;21.65;13.75;;;11.30;99.90;;;;;;5005931;28;20033;-67
2022/07/11 09:34:23;;;;;;;19.80;14.00;;;11.30;99.90;;;;;;5005970;28;20359;-67
2022/07/11 09:36:55;;;;;;;23.85;14.27;;;11.20;99.90;;;;;;5005392;28;20027;-67
2022/07/11 09:39:28;;;;;;;22.08;15.77;;;11.20;99.90;;;;;;5006232;28;20063;-68
2022/07/11 09:41:57;;;;;;;23.30;12.82;;;11.20;99.90;;;;;;5005910;28;20049;-68
2022/07/11 09:44:31;;;;;;;18.92;12.75;;;11.20;99.90;;;;;;5004912;28;20026;-68
2022/07/11 09:46:58;;;;;;;19.92;13.15;;;11.20;99.90;;;;;;5005560;28;20033;-68
2022/07/11 09:49:33;;;;;;;24.75;14.02;;;11.20;99.90;;;;;;5005946;28;20022;-69
2022/07/11 09:52:16;;;;;;;16.95;13.77;;;11.20;99.90;;;;;;5005733;28;20026;-68
2022/07/11 09:54:58;;;;;;;15.98;13.10;;;11.20;99.90;;;;;;5005621;28;20025;-68
2022/07/11 09:57:37;;;;;;;22.67;13.60;;;11.30;99.90;;;;;;5005772;28;20038;-67
2022/07/11 10:00:11;;;;;;;22.80;13.50;;;11.20;99.90;;;;;;5005601;28;20029;-68
2022/07/11 10:02:39;;;;;;;20.08;13.07;;;11.30;99.90;;;;;;5005179;28;20046;-68
2022/07/11 10:05:07;;;;;;;17.90;13.13;;;11.20;99.90;;;;;;5005374;28;20018;-67
2022/07/11 10:07:34;;;;;;;17.13;12.98;;;11.20;99.90;;;;;;5005324;28;20041;-68
2022/07/11 10:10:04;;;;;;;21.58;13.88;;;11.20;99.90;;;;;;5005585;28;20029;-69
2022/07/11 10:12:34;;;;;;;18.48;13.95;;;11.20;99.90;;;;;;5005527;28;20370;-68
2022/07/11 10:15:06;;;;;;;23.48;13.85;;;11.20;99.90;;;;;;5005303;28;20383;-68
2022/07/11 10:17:55;;;;;;;21.13;14.30;;;11.10;99.90;;;;;;5005814;28;20022;-68
2022/07/11 10:20:41;;;;;;;19.23;15.80;;;11.20;99.90;;;;;;5005516;28;20053;-67
2022/07/11 10:23:08;;;;;;;23.58;15.27;;;11.10;99.90;;;;;;5005074;28;20080;-66
2022/07/11 10:25:42;;;;;;;19.80;15.00;;;11.20;99.90;;;;;;5005465;28;20030;-66
2022/07/11 10:28:27;;;;;;;20.45;16.05;;;11.10;99.90;;;;;;5003524;28;20084;-68
2022/07/11 10:31:01;;;;;;;22.85;17.45;;;11.20;99.90;;;;;;5004900;28;20053;-67
2022/07/11 10:33:29;;;;;;;23.45;16.30;;;11.10;99.90;;;;;;5004803;28;20657;-66
2022/07/11 10:35:58;;;;;;;24.85;18.83;;;11.10;99.90;;;;;;5004832;28;20029;-67
2022/07/11 10:38:25;;;;;;;49.42;36.67;;;11.10;99.90;;;;;;5004700;28;20029;-67
2022/07/11 10:40:55;;;;;;;48.75;38.60;;;11.10;99.90;;;;;;5005316;28;20479;-67
2022/07/11 10:43:40;;;;;;;50.90;41.63;;;11.10;99.90;;;;;;5005028;28;20558;-68
2022/07/11 10:46:09;;;;;;;47.95;36.38;;;11.10;99.90;;;;;;5004634;28;20056;-66
2022/07/11 10:48:51;;;;;;;46.15;36.40;;;11.10;99.90;;;;;;5005115;28;20558;-70
2022/07/11 10:51:43;;;;;;;38.95;30.73;;;11.10;99.90;;;;;;5004600;28;20048;-69
2022/07/11 10:54:43;;;;;;;33.20;23.85;;;11.00;99.90;;;;;;5004945;28;20054;-69
2022/07/11 10:57:34;;;;;;;28.00;20.38;;;11.00;99.90;;;;;;5004325;28;20120;-69
2022/07/11 11:00:12;;;;;;;21.27;16.27;;;11.00;99.90;;;;;;5004465;28;20673;-68
2022/07/11 11:03:09;;;;;;;25.83;16.83;;;11.00;99.90;;;;;;5004569;28;20034;-68
2022/07/11 11:05:52;;;;;;;23.92;18.63;;;11.00;99.90;;;;;;5004456;28;20030;-68
2022/07/11 11:08:40;;;;;;;29.45;20.48;;;10.90;99.90;;;;;;5004682;28;20065;-67
2022/07/11 11:11:09;;;;;;;29.88;22.55;;;11.00;99.90;;;;;;5004467;28;20097;-68
2022/07/11 11:13:37;;;;;;;26.58;20.42;;;11.00;99.90;;;;;;5004757;28;20375;-65
2022/07/11 11:16:22;;;;;;;30.10;21.27;;;10.90;99.90;;;;;;5004347;28;20033;-67
2022/07/11 11:18:49;;;;;;;26.25;18.65;;;11.00;99.90;;;;;;5004527;28;20537;-67
2022/07/11 11:21:19;;;;;;;30.83;22.05;;;10.90;99.90;;;;;;5003064;28;20096;-68
2022/07/11 11:24:02;;;;;;;28.25;21.50;;;10.90;99.90;;;;;;5004913;28;20022;-68
2022/07/11 11:26:47;;;;;;;26.13;20.10;;;10.90;99.90;;;;;;5004814;28;20022;-67
2022/07/11 11:29:20;;;;;;;23.50;18.85;;;10.90;99.90;;;;;;5004714;28;20505;-67
2022/07/11 11:31:55;;;;;;;23.58;19.35;;;10.90;99.90;;;;;;5004277;28;20029;-66
2022/07/11 11:34:23;;;;;;;20.75;18.55;;;10.90;99.90;;;;;;5003890;28;20034;-66
2022/07/11 11:37:01;;;;;;;25.33;18.08;;;10.90;99.90;;;;;;5003961;28;20072;-67
2022/07/11 11:39:30;;;;;;;24.77;18.63;;;10.90;99.90;;;;;;5004642;28;20084;-66
2022/07/11 11:42:17;;;;;;;21.08;17.75;;;10.90;99.90;;;;;;5004311;28;20037;-66
2022/07/11 11:44:50;;;;;;;25.75;17.38;;;10.80;99.90;;;;;;5004514;28;20120;-66
2022/07/11 11:47:18;;;;;;;24.67;16.42;;;10.80;99.90;;;;;;5004211;28;20026;-67
2022/07/11 11:49:47;;;;;;;25.38;17.42;;;10.80;99.90;;;;;;5003299;28;20025;-67
2022/07/11 11:52:14;;;;;;;22.83;17.77;;;10.80;99.90;;;;;;5007662;28;20359;-66
2022/07/11 11:54:42;;;;;;;23.83;16.60;;;10.80;99.90;;;;;;5007945;28;20485;-67
2022/07/11 11:57:11;;;;;;;21.92;17.00;;;10.80;99.90;;;;;;5007577;28;20050;-66
2022/07/11 11:59:41;;;;;;;26.73;20.90;;;10.80;99.90;;;;;;5007878;28;20029;-67
2022/07/11 12:02:10;;;;;;;24.08;19.10;;;10.80;99.90;;;;;;5007362;28;20053;-66
2022/07/11 12:04:38;;;;;;;28.60;19.23;;;10.80;99.90;;;;;;5007979;28;20474;-66
2022/07/11 12:07:05;;;;;;;36.30;24.52;;;10.80;99.90;;;;;;5007930;28;20524;-67
2022/07/11 12:09:50;;;;;;;33.30;24.30;;;10.80;99.90;;;;;;5007906;28;20018;-66
2022/07/11 12:12:52;;;;;;;35.03;24.23;;;10.80;99.90;;;;;;5007605;28;20467;-67
2022/07/11 12:16:39;;;;;;;31.27;22.17;;;10.80;99.90;;;;;;5007393;28;20533;-65
2022/07/11 12:18:24;;;;;;;28.27;20.20;;;10.80;99.90;;;;;;5007741;28;20034;-66
2022/07/11 12:20:52;;;;;;;30.65;22.02;;;10.70;99.90;;;;;;5007884;28;20034;-67
2022/07/11 12:23:20;;;;;;;29.80;23.70;;;10.70;99.90;;;;;;5007326;28;20026;-65
2022/07/11 12:25:52;;;;;;;27.60;21.55;;;10.70;99.90;;;;;;5007658;28;20018;-66
2022/07/11 12:28:19;;;;;;;34.13;20.42;;;10.70;99.90;;;;;;5007140;28;20527;-65
2022/07/11 12:30:54;;;;;;;28.83;21.33;;;10.70;99.90;;;;;;5007249;28;20080;-66
2022/07/11 12:33:23;;;;;;;30.27;20.83;;;10.70;99.90;;;;;;5006896;28;20025;-66
2022/07/11 12:36:08;;;;;;;30.48;21.02;;;10.60;99.90;;;;;;5007303;28;20029;-66
2022/07/11 12:38:55;;;;;;;26.70;20.20;;;10.60;99.90;;;;;;5007119;28;20364;-66
2022/07/11 12:41:23;;;;;;;32.30;20.00;;;10.60;99.90;;;;;;5007089;28;20026;-65
2022/07/11 12:46:40;;;;;;;29.77;20.58;;;10.50;99.90;;;;;;5006622;28;20032;-65
2022/07/11 12:49:10;;;;;;;33.55;20.13;;;10.60;99.90;;;;;;5007246;28;20036;-67
2022/07/11 12:51:40;;;;;;;29.58;19.95;;;10.60;99.90;;;;;;5006822;28;20026;-66
2022/07/11 12:54:09;;;;;;;26.17;19.13;;;10.50;99.90;;;;;;5006860;28;20036;-69
2022/07/11 12:56:37;;;;;;;24.85;18.98;;;10.60;99.90;;;;;;5006563;28;20050;-70
2022/07/11 12:59:06;;;;;;;26.55;19.42;;;10.60;99.90;;;;;;5006741;28;20072;-67
2022/07/11 13:01:34;;;;;;;35.08;21.02;;;10.60;99.90;;;;;;5006510;28;20450;-67
2022/07/11 13:04:01;;;;;;;29.35;18.58;;;10.50;99.90;;;;;;5006614;28;20026;-67